Time;durP1;ratioP1;P1;durP2;ratioP2;P2;SDS_P1;SDS_P2;PMS_P1;PMS_P2;Temp;Humidity;BMP_temperature;BMP_pressure;BME280_temperature;BME280_humidity;BME280_pressure;Samples;Min_cycle;Max_cycle;Signal;HPM_P1;HPM_P2
2022/04/02 00:01:13;;;;;;;3.65;1.30;;;;;;;;;;4927512;29;23474;-59
2022/04/02 00:03:38;;;;;;;3.72;1.38;;;;;;;;;;4927202;29;20083;-59
2022/04/02 00:06:04;;;;;;;2.97;1.40;;;;;;;;;;4927278;29;20034;-58
2022/04/02 00:08:29;;;;;;;3.13;1.40;;;;;;;;;;4927202;29;20331;-60
2022/04/02 00:10:54;;;;;;;2.90;1.40;;;;;;;;;;4928700;29;20290;-60
2022/04/02 00:13:20;;;;;;;2.35;1.15;;;;;;;;;;4931039;29;20279;-65
2022/04/02 00:15:45;;;;;;;2.67;1.37;;;;;;;;;;4931234;29;20822;-60
2022/04/02 00:18:10;;;;;;;4.80;1.47;;;;;;;;;;4931279;29;20283;-61
2022/04/02 00:20:35;;;;;;;3.03;1.50;;;;;;;;;;4931195;29;20794;-59
2022/04/02 00:25:44;;;;;;;3.13;1.45;;;;;;;;;;4932942;29;20123;-59
2022/04/02 00:28:10;;;;;;;4.07;1.33;;;;;;;;;;4931526;29;20118;-60
2022/04/02 00:30:35;;;;;;;2.47;1.10;;;;;;;;;;4933209;29;20027;-62
2022/04/02 00:33:00;;;;;;;3.03;1.50;;;;;;;;;;4933116;29;20615;-61
2022/04/02 00:35:26;;;;;;;2.87;1.30;;;;;;;;;;4932622;29;20472;-63
2022/04/02 00:37:51;;;;;;;2.97;1.20;;;;;;;;;;4931267;29;20299;-61
2022/04/02 00:40:17;;;;;;;3.07;1.17;;;;;;;;;;4910377;29;20043;-61
2022/04/02 00:42:42;;;;;;;2.17;1.20;;;;;;;;;;4925735;29;20787;-61
2022/04/02 00:45:07;;;;;;;2.38;1.42;;;;;;;;;;4930197;29;20510;-60
2022/04/02 00:47:32;;;;;;;2.05;1.10;;;;;;;;;;4930761;29;20035;-55
2022/04/02 00:49:58;;;;;;;3.35;1.30;;;;;;;;;;4930331;29;20062;-58
2022/04/02 00:52:26;;;;;;;2.55;0.93;;;;;;;;;;4930162;29;20487;-60
2022/04/02 00:54:52;;;;;;;2.53;1.17;;;;;;;;;;4913346;29;20028;-59
2022/04/02 00:57:17;;;;;;;3.38;1.25;;;;;;;;;;4929829;29;20391;-54
2022/04/02 00:59:43;;;;;;;2.67;0.83;;;;;;;;;;4930091;29;20035;-55
2022/04/02 01:02:08;;;;;;;1.85;1.00;;;;;;;;;;4929963;29;20272;-58
2022/04/02 01:04:33;;;;;;;2.10;1.00;;;;;;;;;;4929542;29;20031;-59
2022/04/02 01:07:01;;;;;;;2.70;1.03;;;;;;;;;;4929640;29;20024;-60
2022/04/02 01:09:27;;;;;;;3.47;0.88;;;;;;;;;;4930327;29;20415;-60
2022/04/02 01:11:53;;;;;;;2.17;1.00;;;;;;;;;;4929597;29;20020;-60
2022/04/02 01:14:18;;;;;;;1.70;1.05;;;;;;;;;;4929233;29;20035;-60
2022/04/02 01:16:43;;;;;;;2.67;0.90;;;;;;;;;;4924633;29;20039;-61
2022/04/02 01:19:09;;;;;;;1.60;1.00;;;;;;;;;;4929667;29;20491;-60
2022/04/02 01:21:34;;;;;;;2.60;1.10;;;;;;;;;;4929311;29;20659;-61
2022/04/02 01:24:00;;;;;;;2.40;1.05;;;;;;;;;;4929025;29;20040;-57
2022/04/02 01:26:25;;;;;;;3.03;1.10;;;;;;;;;;4929266;29;20046;-60
2022/04/02 01:28:53;;;;;;;2.33;1.05;;;;;;;;;;4929737;29;20034;-55
2022/04/02 01:31:19;;;;;;;2.60;1.02;;;;;;;;;;4909496;29;20521;-55
2022/04/02 01:33:45;;;;;;;2.28;1.15;;;;;;;;;;4916853;29;20019;-58
2022/04/02 01:36:11;;;;;;;3.08;1.27;;;;;;;;;;4929195;29;20041;-60
2022/04/02 01:38:36;;;;;;;1.83;0.98;;;;;;;;;;4912450;29;21167;-61
2022/04/02 01:41:01;;;;;;;2.15;1.05;;;;;;;;;;4929237;29;20031;-59
2022/04/02 01:43:26;;;;;;;2.05;1.10;;;;;;;;;;4929021;29;20027;-59
2022/04/02 01:45:52;;;;;;;2.93;1.10;;;;;;;;;;4929443;29;20043;-61
2022/04/02 01:48:18;;;;;;;2.72;1.23;;;;;;;;;;4928930;29;20343;-58
2022/04/02 01:50:43;;;;;;;3.07;1.00;;;;;;;;;;4929409;29;20074;-60
2022/04/02 01:53:09;;;;;;;2.10;0.90;;;;;;;;;;4928789;29;20320;-57
2022/04/02 01:55:34;;;;;;;1.88;1.20;;;;;;;;;;4928765;29;20103;-59
2022/04/02 01:58:00;;;;;;;2.20;0.95;;;;;;;;;;4929178;29;20089;-59
2022/04/02 02:00:25;;;;;;;2.33;0.80;;;;;;;;;;4928997;29;20024;-60
2022/04/02 02:02:50;;;;;;;1.63;0.80;;;;;;;;;;4928925;29;20275;-61
2022/04/02 02:05:15;;;;;;;2.27;1.23;;;;;;;;;;4928521;29;20703;-58
2022/04/02 02:07:41;;;;;;;2.63;1.27;;;;;;;;;;4928807;29;20351;-61
2022/04/02 02:10:06;;;;;;;2.23;1.00;;;;;;;;;;4911889;29;20031;-60
2022/04/02 02:12:32;;;;;;;3.20;1.10;;;;;;;;;;4928556;29;20290;-58
2022/04/02 02:14:57;;;;;;;1.52;0.70;;;;;;;;;;4928460;29;20038;-60
2022/04/02 02:17:22;;;;;;;2.30;0.90;;;;;;;;;;4928677;29;20039;-59
2022/04/02 02:19:47;;;;;;;2.45;0.93;;;;;;;;;;4928445;29;20411;-59
2022/04/02 02:22:13;;;;;;;2.03;0.80;;;;;;;;;;4928808;29;20027;-60
2022/04/02 02:24:38;;;;;;;2.03;1.00;;;;;;;;;;4928280;29;20283;-61
2022/04/02 02:27:03;;;;;;;2.63;0.87;;;;;;;;;;4928515;29;20323;-61
2022/04/02 02:29:29;;;;;;;2.00;1.00;;;;;;;;;;4928482;29;20283;-59
2022/04/02 02:31:54;;;;;;;2.05;0.70;;;;;;;;;;4928111;29;20024;-60
2022/04/02 02:37:03;;;;;;;1.88;0.88;;;;;;;;;;4928271;29;20596;-59
2022/04/02 02:39:29;;;;;;;1.92;0.95;;;;;;;;;;4928173;29;20094;-59
2022/04/02 02:41:54;;;;;;;2.27;0.90;;;;;;;;;;4928367;29;20471;-61
2022/04/02 02:44:19;;;;;;;2.35;1.23;;;;;;;;;;4926867;29;20275;-60
2022/04/02 02:46:44;;;;;;;1.87;0.97;;;;;;;;;;4928588;29;20043;-60
2022/04/02 02:49:09;;;;;;;2.07;0.90;;;;;;;;;;4927747;29;20350;-55
2022/04/02 02:51:35;;;;;;;2.50;1.03;;;;;;;;;;4927695;29;20111;-61
2022/04/02 02:54:00;;;;;;;2.27;0.73;;;;;;;;;;4927917;29;20272;-60
2022/04/02 02:56:25;;;;;;;1.53;0.70;;;;;;;;;;4928232;29;20299;-60
2022/04/02 02:58:51;;;;;;;2.08;0.80;;;;;;;;;;4927879;29;20718;-58
2022/04/02 03:01:16;;;;;;;2.10;0.97;;;;;;;;;;4927861;29;20016;-60
2022/04/02 03:03:41;;;;;;;1.70;0.82;;;;;;;;;;4927595;29;20367;-61
2022/04/02 03:06:08;;;;;;;1.60;0.83;;;;;;;;;;4927843;29;20035;-60
2022/04/02 03:08:34;;;;;;;2.22;0.80;;;;;;;;;;4928099;29;20289;-60
2022/04/02 03:11:00;;;;;;;2.20;0.90;;;;;;;;;;4927644;29;20122;-58
2022/04/02 03:13:26;;;;;;;1.08;0.52;;;;;;;;;;4928029;29;20519;-58
2022/04/02 03:15:51;;;;;;;1.77;0.82;;;;;;;;;;4925999;29;20123;-59
2022/04/02 03:18:17;;;;;;;1.38;0.60;;;;;;;;;;4927620;29;20134;-59
2022/04/02 03:20:42;;;;;;;1.65;0.65;;;;;;;;;;4926347;29;20127;-60
2022/04/02 03:23:08;;;;;;;3.40;0.90;;;;;;;;;;4927098;29;20056;-60
2022/04/02 03:25:34;;;;;;;0.93;0.60;;;;;;;;;;4927733;29;20418;-57
2022/04/02 03:27:59;;;;;;;1.95;0.73;;;;;;;;;;4927565;29;20024;-59
2022/04/02 03:30:25;;;;;;;1.73;0.70;;;;;;;;;;4927611;29;20051;-60
2022/04/02 03:32:50;;;;;;;1.60;1.10;;;;;;;;;;4927461;29;20275;-57
2022/04/02 03:35:16;;;;;;;1.38;0.63;;;;;;;;;;4927027;29;20058;-58
2022/04/02 03:37:42;;;;;;;3.03;1.10;;;;;;;;;;4927723;29;20404;-60
2022/04/02 03:40:08;;;;;;;1.10;0.60;;;;;;;;;;4927674;29;20027;-58
2022/04/02 03:42:36;;;;;;;1.45;0.65;;;;;;;;;;4927785;29;20035;-56
2022/04/02 03:45:02;;;;;;;1.67;0.70;;;;;;;;;;4927517;29;20024;-54
2022/04/02 03:47:27;;;;;;;1.75;0.60;;;;;;;;;;4931479;29;20057;-57
2022/04/02 03:49:52;;;;;;;1.83;0.70;;;;;;;;;;4931284;29;20087;-58
2022/04/02 03:52:18;;;;;;;1.42;0.70;;;;;;;;;;4921442;29;20028;-60
2022/04/02 03:54:43;;;;;;;1.33;0.77;;;;;;;;;;4921542;29;20036;-57
2022/04/02 03:57:09;;;;;;;1.98;0.80;;;;;;;;;;4928977;29;20059;-54
2022/04/02 03:59:34;;;;;;;1.55;0.60;;;;;;;;;;4931337;29;20028;-58
2022/04/02 04:02:00;;;;;;;1.75;0.93;;;;;;;;;;4931077;29;20471;-56
2022/04/02 04:04:25;;;;;;;1.77;0.65;;;;;;;;;;4930958;29;20033;-61
2022/04/02 04:06:51;;;;;;;2.05;0.60;;;;;;;;;;4931111;29;20042;-56
2022/04/02 04:09:17;;;;;;;1.92;0.80;;;;;;;;;;4914070;29;20504;-60
2022/04/02 04:11:42;;;;;;;1.35;0.73;;;;;;;;;;4929518;29;20039;-60
2022/04/02 04:14:07;;;;;;;1.85;0.80;;;;;;;;;;4930959;29;20023;-60
2022/04/02 04:16:32;;;;;;;1.00;0.70;;;;;;;;;;4930996;29;20047;-60
2022/04/02 04:18:58;;;;;;;2.10;0.60;;;;;;;;;;4931162;29;20295;-55
2022/04/02 04:21:24;;;;;;;1.53;0.97;;;;;;;;;;4930657;29;20676;-55
2022/04/02 04:23:50;;;;;;;1.90;0.98;;;;;;;;;;4930311;29;20354;-58
2022/04/02 04:26:15;;;;;;;1.08;0.52;;;;;;;;;;4910552;29;20460;-60
2022/04/02 04:28:41;;;;;;;0.98;0.55;;;;;;;;;;4924610;29;20024;-55
2022/04/02 04:31:06;;;;;;;1.53;0.77;;;;;;;;;;4930280;29;20499;-61
2022/04/02 04:33:31;;;;;;;0.97;0.50;;;;;;;;;;4930855;29;20488;-59
2022/04/02 04:35:57;;;;;;;2.10;0.50;;;;;;;;;;4930266;29;20287;-58
2022/04/02 04:38:22;;;;;;;0.90;0.50;;;;;;;;;;4930454;29;20028;-63
2022/04/02 04:40:47;;;;;;;2.20;0.80;;;;;;;;;;4929747;29;20439;-56
2022/04/02 04:43:12;;;;;;;2.47;0.80;;;;;;;;;;4928906;29;20288;-56
2022/04/02 04:45:38;;;;;;;3.90;0.63;;;;;;;;;;4927163;29;20039;-53
2022/04/02 04:48:03;;;;;;;1.50;0.70;;;;;;;;;;4930928;29;20286;-56
2022/04/02 04:50:28;;;;;;;0.93;0.50;;;;;;;;;;4915958;29;20024;-59
2022/04/02 04:52:53;;;;;;;1.40;0.80;;;;;;;;;;4932792;29;20024;-57
2022/04/02 04:55:19;;;;;;;1.03;0.70;;;;;;;;;;4930645;29;20326;-58
2022/04/02 04:57:44;;;;;;;1.60;0.70;;;;;;;;;;4930856;29;20283;-57
2022/04/02 05:00:09;;;;;;;1.63;0.60;;;;;;;;;;4920756;29;20708;-60
2022/04/02 05:02:35;;;;;;;0.70;0.30;;;;;;;;;;4931715;29;20027;-59
2022/04/02 05:05:00;;;;;;;0.63;0.40;;;;;;;;;;4931810;29;20016;-58
2022/04/02 05:07:26;;;;;;;1.35;0.50;;;;;;;;;;4932135;29;20027;-59
2022/04/02 05:09:51;;;;;;;1.47;0.50;;;;;;;;;;4931737;29;20030;-58
2022/04/02 05:12:16;;;;;;;2.50;0.50;;;;;;;;;;4932144;29;20342;-58
2022/04/02 05:14:42;;;;;;;1.13;0.50;;;;;;;;;;4931691;29;20031;-59
2022/04/02 05:17:07;;;;;;;1.60;0.53;;;;;;;;;;4932967;29;20418;-60
2022/04/02 05:19:32;;;;;;;1.15;0.45;;;;;;;;;;4933218;29;20275;-55
2022/04/02 05:21:58;;;;;;;1.07;0.40;;;;;;;;;;4933554;29;20027;-59
2022/04/02 05:24:23;;;;;;;0.90;0.40;;;;;;;;;;4932982;29;20039;-60
2022/04/02 05:26:51;;;;;;;1.38;0.50;;;;;;;;;;4933021;29;20658;-59
2022/04/02 05:29:16;;;;;;;1.48;0.50;;;;;;;;;;4933229;29;20102;-60
2022/04/02 05:31:42;;;;;;;0.83;0.30;;;;;;;;;;4915680;29;20114;-58
2022/04/02 05:34:08;;;;;;;1.02;0.32;;;;;;;;;;4933055;29;20263;-59
2022/04/02 05:36:33;;;;;;;1.45;0.50;;;;;;;;;;4920780;29;20048;-58
2022/04/02 05:38:59;;;;;;;0.90;0.53;;;;;;;;;;4929439;29;20024;-58
2022/04/02 05:41:24;;;;;;;1.00;0.50;;;;;;;;;;4931112;29;20035;-56
2022/04/02 05:43:49;;;;;;;0.77;0.40;;;;;;;;;;4932105;29;20264;-57
2022/04/02 05:46:15;;;;;;;1.27;0.60;;;;;;;;;;4932135;29;20534;-57
2022/04/02 05:48:40;;;;;;;1.48;0.50;;;;;;;;;;4932149;29;20051;-57
2022/04/02 05:51:05;;;;;;;1.07;0.50;;;;;;;;;;4931964;29;20095;-58
2022/04/02 05:53:30;;;;;;;1.17;0.40;;;;;;;;;;4931963;29;20043;-60
2022/04/02 05:55:56;;;;;;;1.07;0.40;;;;;;;;;;4930164;29;20296;-57
2022/04/02 05:58:21;;;;;;;1.00;0.40;;;;;;;;;;4931665;29;20311;-56
2022/04/02 06:00:47;;;;;;;1.00;0.40;;;;;;;;;;4930638;29;20035;-57
2022/04/02 06:03:14;;;;;;;0.95;0.38;;;;;;;;;;4914026;29;20276;-58
2022/04/02 06:05:39;;;;;;;1.08;0.38;;;;;;;;;;4931727;29;20027;-58
2022/04/02 06:08:05;;;;;;;0.93;0.40;;;;;;;;;;4931287;29;20036;-56
2022/04/02 06:10:30;;;;;;;0.77;0.40;;;;;;;;;;4914584;29;20027;-58
2022/04/02 06:12:55;;;;;;;0.87;0.47;;;;;;;;;;4931796;29;20028;-58
2022/04/02 06:15:21;;;;;;;0.60;0.30;;;;;;;;;;4930097;29;20313;-58
2022/04/02 06:17:47;;;;;;;1.48;0.55;;;;;;;;;;4931174;29;20362;-57
2022/04/02 06:20:13;;;;;;;1.60;0.40;;;;;;;;;;4930904;29;20102;-58
2022/04/02 06:22:38;;;;;;;1.60;0.50;;;;;;;;;;4930841;29;20334;-58
2022/04/02 06:25:04;;;;;;;1.10;0.40;;;;;;;;;;4931466;29;20054;-57
2022/04/02 06:27:29;;;;;;;1.80;0.50;;;;;;;;;;4931778;29;20023;-61
2022/04/02 06:29:55;;;;;;;1.73;0.57;;;;;;;;;;4931902;29;20098;-60
2022/04/02 06:32:22;;;;;;;1.05;0.60;;;;;;;;;;4931283;29;20035;-56
2022/04/02 06:34:47;;;;;;;1.02;0.40;;;;;;;;;;4931424;29;20115;-56
2022/04/02 06:37:12;;;;;;;1.50;0.50;;;;;;;;;;4930065;29;20126;-57
2022/04/02 06:39:37;;;;;;;1.43;0.67;;;;;;;;;;4930493;29;20036;-56
2022/04/02 06:42:03;;;;;;;1.63;0.50;;;;;;;;;;4930730;29;20038;-55
2022/04/02 06:44:29;;;;;;;1.48;0.52;;;;;;;;;;4931229;29;20421;-56
2022/04/02 06:46:56;;;;;;;2.13;0.70;;;;;;;;;;4930736;29;20107;-55
2022/04/02 06:49:21;;;;;;;1.10;0.65;;;;;;;;;;4930386;29;20098;-57
2022/04/02 06:51:46;;;;;;;2.00;0.57;;;;;;;;;;4930303;29;20538;-57
2022/04/02 06:54:12;;;;;;;1.03;0.43;;;;;;;;;;4930282;29;20279;-56
2022/04/02 06:56:37;;;;;;;1.33;0.40;;;;;;;;;;4923761;29;20039;-56
2022/04/02 06:59:02;;;;;;;1.57;0.57;;;;;;;;;;4928863;29;20036;-60
2022/04/02 07:01:27;;;;;;;1.60;0.60;;;;;;;;;;4930593;29;20279;-58
2022/04/02 07:03:53;;;;;;;2.83;0.50;;;;;;;;;;4929998;29;20659;-59
2022/04/02 07:06:18;;;;;;;2.35;0.65;;;;;;;;;;4931106;29;20023;-51
2022/04/02 07:08:44;;;;;;;1.63;0.70;;;;;;;;;;4931048;29;20020;-55
2022/04/02 07:11:09;;;;;;;1.52;0.55;;;;;;;;;;4930058;29;20035;-55
2022/04/02 07:13:34;;;;;;;1.13;0.47;;;;;;;;;;4930026;29;20153;-55
2022/04/02 07:16:00;;;;;;;1.33;0.67;;;;;;;;;;4926241;29;20036;-52
2022/04/02 07:18:25;;;;;;;1.08;0.40;;;;;;;;;;4930017;29;20030;-55
2022/04/02 07:20:51;;;;;;;0.82;0.40;;;;;;;;;;4929505;29;20035;-56
2022/04/02 07:23:17;;;;;;;1.35;0.50;;;;;;;;;;4929686;29;20484;-55
2022/04/02 07:25:42;;;;;;;2.28;0.60;;;;;;;;;;4912817;29;20051;-56
2022/04/02 07:28:07;;;;;;;3.40;0.70;;;;;;;;;;4929905;29;20035;-54
2022/04/02 07:30:33;;;;;;;1.98;0.30;;;;;;;;;;4930699;29;20030;-54
2022/04/02 07:32:58;;;;;;;1.33;0.43;;;;;;;;;;4930458;29;20265;-57
2022/04/02 07:35:23;;;;;;;2.78;0.57;;;;;;;;;;4927712;29;20034;-54
2022/04/02 07:38:03;;;;;;;3.37;1.27;;;;;;;;;;4913221;29;20032;-58
2022/04/02 07:40:48;;;;;;;4.28;0.70;;;;;;;;;;4925065;29;20538;-57
2022/04/02 07:43:26;;;;;;;3.50;1.05;;;;;;;;;;4911819;29;20028;-54
2022/04/02 07:45:53;;;;;;;2.15;0.70;;;;;;;;;;4924944;29;20199;-52
2022/04/02 07:48:19;;;;;;;3.25;0.65;;;;;;;;;;4927504;29;20027;-56
2022/04/02 07:50:45;;;;;;;3.35;0.82;;;;;;;;;;4925594;29;20032;-57
2022/04/02 07:53:29;;;;;;;3.17;0.93;;;;;;;;;;4923504;29;20020;-56
2022/04/02 07:55:56;;;;;;;4.28;0.80;;;;;;;;;;4887615;29;20127;-56
2022/04/02 07:58:24;;;;;;;2.08;0.50;;;;;;;;;;4907606;29;20039;-55
2022/04/02 08:00:49;;;;;;;3.83;0.60;;;;;;;;;;4905415;29;20043;-56
2022/04/02 08:03:15;;;;;;;3.10;1.05;;;;;;;;;;4912213;29;20036;-57
2022/04/02 08:05:40;;;;;;;2.77;0.73;;;;;;;;;;4913028;29;20087;-57
2022/04/02 08:08:06;;;;;;;3.17;0.73;;;;;;;;;;4912401;29;20067;-57
2022/04/02 08:10:31;;;;;;;3.20;0.90;;;;;;;;;;4929844;29;20264;-59
2022/04/02 08:12:57;;;;;;;3.40;0.70;;;;;;;;;;4930112;29;20947;-53
2022/04/02 08:15:23;;;;;;;2.67;0.90;;;;;;;;;;4910925;29;20583;-59
2022/04/02 08:17:52;;;;;;;2.10;0.68;;;;;;;;;;4916750;29;20032;-58
2022/04/02 08:20:17;;;;;;;3.30;0.90;;;;;;;;;;4930059;29;20020;-50
2022/04/02 08:22:42;;;;;;;2.70;0.80;;;;;;;;;;4930104;29;20058;-57
2022/04/02 08:25:08;;;;;;;2.75;0.88;;;;;;;;;;4929892;29;20130;-53
2022/04/02 08:27:39;;;;;;;2.63;0.80;;;;;;;;;;4928847;29;20475;-56
2022/04/02 08:30:04;;;;;;;3.35;1.00;;;;;;;;;;4929095;29;20020;-57
2022/04/02 08:32:47;;;;;;;4.68;0.90;;;;;;;;;;4929269;29;20067;-57
2022/04/02 08:35:13;;;;;;;2.60;1.27;;;;;;;;;;4928577;29;20023;-55
2022/04/02 08:37:53;;;;;;;1.75;0.80;;;;;;;;;;4929614;29;20111;-56
2022/04/02 08:40:29;;;;;;;2.30;1.00;;;;;;;;;;4927471;29;20016;-57
2022/04/02 08:43:02;;;;;;;2.50;0.82;;;;;;;;;;4913151;29;20098;-57
2022/04/02 08:45:28;;;;;;;1.90;0.68;;;;;;;;;;4929856;29;20027;-53
2022/04/02 08:48:11;;;;;;;2.72;0.80;;;;;;;;;;4928172;29;20024;-55
2022/04/02 08:50:37;;;;;;;2.88;0.80;;;;;;;;;;4930762;29;20492;-55
2022/04/02 08:53:14;;;;;;;3.63;1.20;;;;;;;;;;4910335;29;20032;-58
2022/04/02 08:55:41;;;;;;;2.70;1.08;;;;;;;;;;4926475;29;20098;-58
2022/04/02 08:58:23;;;;;;;3.08;1.25;;;;;;;;;;4912750;29;20399;-58
2022/04/02 09:00:58;;;;;;;2.45;1.02;;;;;;;;;;4926662;29;20131;-58
2022/04/02 09:03:42;;;;;;;2.53;0.90;;;;;;;;;;4911020;29;20474;-55
2022/04/02 09:06:13;;;;;;;4.68;1.40;;;;;;;;;;4926827;29;20036;-60
2022/04/02 09:08:38;;;;;;;3.42;1.33;;;;;;;;;;4928927;29;20031;-59
2022/04/02 09:11:05;;;;;;;2.45;0.70;;;;;;;;;;4929236;29;20871;-57
2022/04/02 09:13:39;;;;;;;4.00;0.70;;;;;;;;;;4928842;29;20036;-58
2022/04/02 09:16:05;;;;;;;3.03;0.90;;;;;;;;;;4920234;29;20063;-58
2022/04/02 09:18:30;;;;;;;2.58;1.13;;;;;;;;;;4928544;29;20590;-55
2022/04/02 09:20:57;;;;;;;2.77;0.93;;;;;;;;;;4929483;29;20115;-55
2022/04/02 09:23:41;;;;;;;2.03;0.80;;;;;;;;;;4928716;29;20797;-56
2022/04/02 09:26:25;;;;;;;3.28;1.13;;;;;;;;;;4928946;29;20027;-57
2022/04/02 09:28:51;;;;;;;2.85;0.90;;;;;;;;;;4929246;29;20027;-58
2022/04/02 09:31:35;;;;;;;4.33;1.17;;;;;;;;;;4928578;29;20019;-55
2022/04/02 09:34:00;;;;;;;2.15;0.90;;;;;;;;;;4928873;29;20028;-58
2022/04/02 09:36:44;;;;;;;3.60;1.52;;;;;;;;;;4919036;29;20538;-57
2022/04/02 09:39:16;;;;;;;6.38;1.42;;;;;;;;;;4925362;29;20031;-55
2022/04/02 09:42:00;;;;;;;9.88;3.15;;;;;;;;;;4928655;29;20111;-56
2022/04/02 09:44:47;;;;;;;4.93;2.30;;;;;;;;;;4928161;29;20036;-54
2022/04/02 09:47:16;;;;;;;6.72;2.55;;;;;;;;;;4928126;29;20082;-56
2022/04/02 09:49:46;;;;;;;7.38;2.83;;;;;;;;;;4928723;29;20024;-55
2022/04/02 09:52:11;;;;;;;5.90;2.58;;;;;;;;;;4896019;29;20736;-54
2022/04/02 09:54:38;;;;;;;6.87;3.30;;;;;;;;;;4910912;29;20035;-57
2022/04/02 09:57:07;;;;;;;8.18;3.45;;;;;;;;;;4913282;29;20036;-57
2022/04/02 09:59:38;;;;;;;7.50;4.78;;;;;;;;;;4928113;29;20075;-56
2022/04/02 10:02:04;;;;;;;7.97;3.80;;;;;;;;;;4928325;29;20031;-55
2022/04/02 10:04:40;;;;;;;8.88;4.70;;;;;;;;;;4928461;29;20514;-56
2022/04/02 10:07:07;;;;;;;10.35;4.57;;;;;;;;;;4928619;29;20118;-56
2022/04/02 10:09:33;;;;;;;8.07;4.30;;;;;;;;;;4927967;29;20086;-57
2022/04/02 10:11:58;;;;;;;5.97;3.63;;;;;;;;;;4928367;29;20023;-57
2022/04/02 10:14:28;;;;;;;8.88;3.70;;;;;;;;;;4928142;29;20438;-54
2022/04/02 10:16:56;;;;;;;;;;;;;;;;;;4925916;29;20035;-57
2022/04/02 10:19:26;;;;;;;7.03;3.50;;;;;;;;;;4925433;29;19918;-56
2022/04/02 10:21:51;;;;;;;6.18;3.30;;;;;;;;;;4891534;29;20035;-56
2022/04/02 10:24:21;;;;;;;6.47;3.37;;;;;;;;;;4926219;29;20058;-58
2022/04/02 10:26:48;;;;;;;7.82;3.55;;;;;;;;;;4925985;29;20282;-57
2022/04/02 10:29:13;;;;;;;7.13;3.13;;;;;;;;;;4927808;29;20040;-56
2022/04/02 10:31:42;;;;;;;6.32;2.75;;;;;;;;;;4927282;29;20039;-59
2022/04/02 10:34:07;;;;;;;7.38;2.97;;;;;;;;;;4926116;29;20020;-58
2022/04/02 10:36:32;;;;;;;4.80;2.70;;;;;;;;;;4924861;29;20750;-57
2022/04/02 10:38:57;;;;;;;7.17;2.70;;;;;;;;;;4909875;29;20603;-54
2022/04/02 10:41:22;;;;;;;5.73;2.40;;;;;;;;;;4908686;29;20284;-56
2022/04/02 10:43:50;;;;;;;8.57;3.20;;;;;;;;;;4908938;29;20271;-56
2022/04/02 10:46:15;;;;;;;6.85;2.50;;;;;;;;;;4923358;29;20035;-55
2022/04/02 10:48:57;;;;;;;8.52;2.70;;;;;;;;;;4926295;29;20031;-56
2022/04/02 10:51:26;;;;;;;4.28;2.03;;;;;;;;;;4924568;29;20043;-57
2022/04/02 10:54:08;;;;;;;3.40;2.10;;;;;;;;;;4925617;29;20525;-52
2022/04/02 10:56:41;;;;;;;7.72;2.30;;;;;;;;;;4923088;29;20031;-57
2022/04/02 10:59:07;;;;;;;6.47;2.50;;;;;;;;;;4926223;29;20423;-58
2022/04/02 11:01:32;;;;;;;6.70;2.22;;;;;;;;;;4925500;29;20031;-56
2022/04/02 11:03:58;;;;;;;7.53;3.05;;;;;;;;;;4908954;29;20000;-54
2022/04/02 11:06:42;;;;;;;4.05;2.05;;;;;;;;;;4907798;29;20383;-57
2022/04/02 11:09:29;;;;;;;3.83;1.88;;;;;;;;;;4924950;29;20146;-57
2022/04/02 11:12:15;;;;;;;4.53;2.10;;;;;;;;;;4925499;29;20286;-55
2022/04/02 11:14:49;;;;;;;6.75;2.65;;;;;;;;;;4925110;29;20790;-55
2022/04/02 11:17:33;;;;;;;4.28;1.95;;;;;;;;;;4922283;29;20091;-55
2022/04/02 11:20:11;;;;;;;5.63;2.40;;;;;;;;;;4923724;29;20030;-56
2022/04/02 11:22:47;;;;;;;3.47;1.75;;;;;;;;;;4925778;29;20051;-58
2022/04/02 11:25:35;;;;;;;6.80;2.30;;;;;;;;;;4927743;29;20087;-58
2022/04/02 11:28:11;;;;;;;5.03;1.85;;;;;;;;;;4922630;29;20027;-56
2022/04/02 11:30:36;;;;;;;6.22;1.85;;;;;;;;;;4929710;29;20044;-58
2022/04/02 11:33:08;;;;;;;5.63;2.00;;;;;;;;;;4926885;29;20482;-57
2022/04/02 11:35:37;;;;;;;6.00;1.40;;;;;;;;;;4925604;29;20559;-58
2022/04/02 11:38:03;;;;;;;5.20;1.73;;;;;;;;;;4926256;29;20032;-58
2022/04/02 11:40:28;;;;;;;5.07;2.00;;;;;;;;;;4925904;29;20322;-58
2022/04/02 11:42:54;;;;;;;5.85;1.85;;;;;;;;;;4925972;29;20035;-55
2022/04/02 11:45:22;;;;;;;5.20;1.83;;;;;;;;;;4926555;29;20458;-58
2022/04/02 11:47:49;;;;;;;8.43;2.03;;;;;;;;;;4926880;29;20031;-54
2022/04/02 11:50:14;;;;;;;7.68;2.20;;;;;;;;;;4910229;29;20039;-57
2022/04/02 11:52:52;;;;;;;7.28;1.80;;;;;;;;;;4910163;29;20036;-57
2022/04/02 11:55:17;;;;;;;7.15;1.83;;;;;;;;;;4925615;29;20027;-56
2022/04/02 11:58:02;;;;;;;6.10;1.92;;;;;;;;;;4912416;29;20023;-57
2022/04/02 12:00:28;;;;;;;5.32;1.95;;;;;;;;;;4927722;29;20027;-55
2022/04/02 12:02:53;;;;;;;6.38;2.08;;;;;;;;;;4909474;29;20118;-57
2022/04/02 12:05:20;;;;;;;5.47;2.65;;;;;;;;;;4926770;29;20475;-57
2022/04/02 12:07:48;;;;;;;5.35;1.80;;;;;;;;;;4928352;29;20028;-56
2022/04/02 12:10:24;;;;;;;4.43;2.00;;;;;;;;;;4930532;29;20027;-57
2022/04/02 12:12:50;;;;;;;5.30;2.13;;;;;;;;;;4914017;29;20035;-57
2022/04/02 12:15:15;;;;;;;9.20;1.90;;;;;;;;;;4931459;29;20024;-55
2022/04/02 12:17:42;;;;;;;6.93;1.77;;;;;;;;;;4931347;29;20098;-56
2022/04/02 12:20:08;;;;;;;7.40;2.17;;;;;;;;;;4931558;29;20023;-57
2022/04/02 12:22:35;;;;;;;6.53;2.05;;;;;;;;;;4934309;29;20045;-54
2022/04/02 12:25:02;;;;;;;7.47;2.00;;;;;;;;;;4934001;29;20023;-55
2022/04/02 12:27:30;;;;;;;6.13;2.10;;;;;;;;;;4932584;29;20027;-57
2022/04/02 12:29:56;;;;;;;7.87;1.70;;;;;;;;;;4931462;29;20491;-55
2022/04/02 12:32:29;;;;;;;4.00;1.75;;;;;;;;;;4922626;29;20090;-54
2022/04/02 12:34:55;;;;;;;8.48;2.60;;;;;;;;;;4925615;29;20032;-54
2022/04/02 12:37:21;;;;;;;7.13;2.55;;;;;;;;;;4917443;29;20039;-52
2022/04/02 12:39:46;;;;;;;6.80;2.20;;;;;;;;;;4929580;29;20091;-54
2022/04/02 12:42:11;;;;;;;7.30;2.60;;;;;;;;;;4928628;29;20331;-56
2022/04/02 12:44:37;;;;;;;8.50;2.25;;;;;;;;;;4929112;29;20031;-58
2022/04/02 12:47:09;;;;;;;7.63;1.80;;;;;;;;;;4912163;29;20023;-56
2022/04/02 12:49:38;;;;;;;7.80;2.58;;;;;;;;;;4929387;29;20032;-56
2022/04/02 12:52:13;;;;;;;7.15;2.05;;;;;;;;;;4912921;29;20030;-56
2022/04/02 12:54:43;;;;;;;9.20;2.75;;;;;;;;;;4929072;29;20290;-56
2022/04/02 12:57:13;;;;;;;6.95;1.90;;;;;;;;;;4914150;29;20048;-56
2022/04/02 12:59:42;;;;;;;10.88;2.40;;;;;;;;;;4911967;29;20039;-55
2022/04/02 13:02:08;;;;;;;6.32;2.72;;;;;;;;;;4928698;29;20730;-55
2022/04/02 13:04:34;;;;;;;8.10;2.30;;;;;;;;;;4911644;29;20015;-57
2022/04/02 13:06:59;;;;;;;7.90;2.40;;;;;;;;;;4928921;29;20582;-58
2022/04/02 13:09:32;;;;;;;8.07;2.67;;;;;;;;;;4909740;29;20482;-57
2022/04/02 13:11:57;;;;;;;8.38;1.98;;;;;;;;;;4928650;29;20265;-58
2022/04/02 13:14:23;;;;;;;9.57;2.53;;;;;;;;;;4927880;29;20031;-59
2022/04/02 13:16:49;;;;;;;6.37;2.27;;;;;;;;;;4939877;29;20310;-58
2022/04/02 13:22:03;;;;;;;5.45;1.58;;;;;;;;;;4928984;29;20055;-54
2022/04/02 13:24:29;;;;;;;8.65;1.80;;;;;;;;;;4928133;29;20113;-57
2022/04/02 13:27:01;;;;;;;9.88;2.28;;;;;;;;;;4929084;29;20487;-58
2022/04/02 13:29:45;;;;;;;5.25;1.85;;;;;;;;;;4928538;29;20042;-57
2022/04/02 13:32:19;;;;;;;6.28;1.63;;;;;;;;;;4927605;29;20023;-56
2022/04/02 13:34:52;;;;;;;5.35;1.80;;;;;;;;;;4928372;29;20066;-55
2022/04/02 13:37:26;;;;;;;5.60;2.17;;;;;;;;;;4912795;29;20048;-57
2022/04/02 13:39:51;;;;;;;10.57;2.20;;;;;;;;;;4911438;29;20032;-55
2022/04/02 13:42:17;;;;;;;9.52;3.13;;;;;;;;;;4928013;29;20087;-54
2022/04/02 13:44:44;;;;;;;4.63;1.90;;;;;;;;;;4927214;29;20053;-56
2022/04/02 13:47:10;;;;;;;7.80;2.03;;;;;;;;;;4927611;29;20090;-54
2022/04/02 13:49:59;;;;;;;7.00;2.58;;;;;;;;;;4927029;29;20499;-53
2022/04/02 13:52:25;;;;;;;4.78;1.73;;;;;;;;;;4916100;29;20040;-55
2022/04/02 13:55:06;;;;;;;9.10;1.90;;;;;;;;;;4923862;29;20050;-55
2022/04/02 13:57:32;;;;;;;7.88;2.13;;;;;;;;;;4923337;29;20036;-55
2022/04/02 13:59:58;;;;;;;7.85;2.13;;;;;;;;;;4910337;29;20028;-54
2022/04/02 14:02:26;;;;;;;3.75;1.50;;;;;;;;;;4923386;29;20511;-55
2022/04/02 14:04:59;;;;;;;5.95;1.92;;;;;;;;;;4926872;29;20554;-53
2022/04/02 14:07:24;;;;;;;5.20;1.88;;;;;;;;;;4925939;29;20062;-54
2022/04/02 14:09:50;;;;;;;6.57;1.93;;;;;;;;;;4905950;29;20082;-55
2022/04/02 14:12:17;;;;;;;6.00;2.25;;;;;;;;;;4909892;29;20074;-54
2022/04/02 14:14:51;;;;;;;5.53;1.83;;;;;;;;;;4910788;29;20427;-54
2022/04/02 14:17:16;;;;;;;8.05;1.60;;;;;;;;;;4911815;29;20063;-54
2022/04/02 14:19:42;;;;;;;5.53;1.80;;;;;;;;;;4910781;29;20032;-56
2022/04/02 14:22:08;;;;;;;5.60;1.58;;;;;;;;;;4926795;29;20062;-55
2022/04/02 14:24:37;;;;;;;4.05;1.42;;;;;;;;;;4908968;29;20694;-56
2022/04/02 14:27:21;;;;;;;3.60;1.33;;;;;;;;;;4907052;29;20027;-56
2022/04/02 14:30:06;;;;;;;4.88;1.40;;;;;;;;;;4925114;29;20038;-55
2022/04/02 14:32:50;;;;;;;5.88;1.65;;;;;;;;;;4925758;29;20038;-56
2022/04/02 14:35:24;;;;;;;4.13;1.48;;;;;;;;;;4926271;29;20084;-56
2022/04/02 14:37:55;;;;;;;5.30;1.50;;;;;;;;;;4925986;29;20039;-55
2022/04/02 14:40:23;;;;;;;3.42;1.40;;;;;;;;;;4927377;29;20019;-54
2022/04/02 14:42:58;;;;;;;5.93;2.47;;;;;;;;;;4927189;29;20521;-56
2022/04/02 14:45:28;;;;;;;4.30;1.48;;;;;;;;;;4926850;29;20051;-57
2022/04/02 14:48:00;;;;;;;5.50;1.80;;;;;;;;;;4926970;29;20020;-53
2022/04/02 14:50:31;;;;;;;4.82;1.63;;;;;;;;;;4927372;29;20067;-54
2022/04/02 14:53:15;;;;;;;5.13;1.30;;;;;;;;;;4927058;29;20493;-57
2022/04/02 14:55:59;;;;;;;4.43;1.63;;;;;;;;;;4923598;29;20040;-56